Leckkill, Pennsylvania
Current Conditions -  °F | °C
As of 4:53 PM on Friday 19 Dec 2014 (Local Time) from KSEG Reporting Station
Overcast Overcast  
Wind Chill: 29°   Ceiling: 4000
Heat Index: 35°   Visibility: 10mi
Dew Point: 21°   Wind: 8mph
Humidity: 57%   Direction: 310°NW
Pressure: 30.16"   Gusts: NA
Location:  40.7104°N, 76.6275°W
Report Text: KSEG 192153Z AUTO 31007KT 10SM OVC040 02/M06 A3016 RMK AO2 SLP216 T00171061
Loading
Personal Weather Stations






























Interactive Weather Map New forecast layout! Learn more

10-Day Weather Forecast

Advertisements
Track Severe Weather on mobile